Terminal Aerodrome Forecast
Issued by NWS

Home | Current Version | Previous Version | Text Only | Print | Product List | Glossary On
Versions: 1 2 3 4 5 6 7 8 9 10 11 12 13 14 15 16 17 18 19 20 21 22 23
000
FTUS41 KILN 312331
TAFLUK
TAF
KLUK 312331Z 0100/0124 23006KT P6SM VCTS BKN045CB
     FM010200 00000KT P6SM FEW050 SCT250
     FM010400 00000KT 3SM BR SCT250
     FM010700 00000KT 1SM BR SCT002
      TEMPO 0108/0112 1/4SM FG VV002
     FM011300 00000KT 2SM BR SCT250
     FM011400 00000KT P6SM SCT028
     FM011800 26005KT P6SM BKN040=

USA.gov is the U.S. government's official web portal to all federal, state and local government web resources and services.